createdAt,value
2023-01-31T00:01:33.176Z,97195.06
2023-01-31T00:04:01.062Z,97185.47
2023-01-31T00:06:30.211Z,97187.69
2023-01-31T00:08:58.272Z,97181.38
2023-01-31T00:11:25.758Z,97192.44
2023-01-31T00:13:59.166Z,97198.00
2023-01-31T00:16:26.004Z,97195.53
2023-01-31T00:18:53.515Z,97186.31
2023-01-31T00:21:21.373Z,97188.22
2023-01-31T00:23:48.434Z,97180.91
2023-01-31T00:26:14.982Z,97184.44
2023-01-31T00:28:41.862Z,97178.78
2023-01-31T00:31:08.746Z,97184.19
2023-01-31T00:33:36.009Z,97176.78
2023-01-31T00:36:03.330Z,97187.88
2023-01-31T00:38:29.853Z,97202.34
2023-01-31T00:40:56.215Z,97200.97
2023-01-31T00:43:22.646Z,97200.25
2023-01-31T00:45:51.361Z,97201.28
2023-01-31T00:48:17.706Z,97203.78
2023-01-31T00:50:44.162Z,97196.47
2023-01-31T00:53:10.552Z,97216.03
2023-01-31T00:55:37.974Z,97215.00
2023-01-31T00:58:05.415Z,97223.81
2023-01-31T01:00:33.097Z,97220.28
2023-01-31T01:02:59.451Z,97225.28
2023-01-31T01:05:27.865Z,97230.09
2023-01-31T01:07:54.197Z,97226.66
2023-01-31T01:10:20.554Z,97228.56
2023-01-31T01:12:47.002Z,97237.78
2023-01-31T01:15:14.338Z,97245.25
2023-01-31T01:17:41.054Z,97232.06
2023-01-31T01:20:08.668Z,97240.09
2023-01-31T01:22:35.277Z,97220.03
2023-01-31T01:25:01.608Z,97243.75
2023-01-31T01:27:28.043Z,97219.13
2023-01-31T01:29:54.379Z,97233.75
2023-01-31T01:32:21.767Z,97255.22
2023-01-31T01:34:48.370Z,97251.66
2023-01-31T01:37:20.619Z,97255.06
2023-01-31T01:39:47.937Z,97241.84
2023-01-31T01:42:19.304Z,97247.78
2023-01-31T01:44:45.667Z,97248.16
2023-01-31T01:47:18.124Z,97255.25
2023-01-31T01:49:46.172Z,97255.09
2023-01-31T01:52:14.857Z,97243.28
2023-01-31T01:54:53.634Z,97246.63
2023-01-31T01:57:23.634Z,97238.22
2023-01-31T01:59:54.712Z,97248.50
2023-01-31T02:02:21.536Z,97253.47
2023-01-31T02:04:49.848Z,97270.25
2023-01-31T02:07:16.483Z,97259.63
2023-01-31T02:09:50.110Z,97264.41
2023-01-31T02:12:16.573Z,97278.28
2023-01-31T02:14:44.508Z,97277.56
2023-01-31T02:17:15.058Z,97272.13
2023-01-31T02:20:04.755Z,97284.00
2023-01-31T02:22:34.877Z,97282.75
2023-01-31T02:25:10.297Z,97290.19
2023-01-31T02:27:55.310Z,97300.66
2023-01-31T02:30:40.371Z,97303.63
2023-01-31T02:33:09.568Z,97304.03
2023-01-31T02:35:54.254Z,97308.28
2023-01-31T02:38:31.011Z,97312.84
2023-01-31T02:41:16.227Z,97308.09
2023-01-31T02:44:10.304Z,97314.25
2023-01-31T02:46:52.176Z,97314.53
2023-01-31T02:49:34.661Z,97301.69
2023-01-31T02:52:20.416Z,97297.75
2023-01-31T02:55:11.485Z,97294.69
2023-01-31T02:57:38.677Z,97292.06
2023-01-31T03:00:06.865Z,97292.16
2023-01-31T03:02:33.249Z,97301.53
2023-01-31T03:05:01.615Z,97315.22
2023-01-31T03:07:33.601Z,97311.31
2023-01-31T03:10:18.894Z,97314.81
2023-01-31T03:12:54.434Z,97320.72
2023-01-31T03:15:59.926Z,97315.59
2023-01-31T03:18:28.665Z,97328.00
2023-01-31T03:21:06.095Z,97328.81
2023-01-31T03:23:34.681Z,97335.13
2023-01-31T03:26:03.853Z,97334.94
2023-01-31T03:28:31.895Z,97335.53
2023-01-31T03:31:07.205Z,97320.63
2023-01-31T03:33:39.307Z,97338.22
2023-01-31T03:36:21.336Z,97340.38
2023-01-31T03:38:52.989Z,97336.19
2023-01-31T03:41:29.977Z,97336.81
2023-01-31T03:44:01.992Z,97353.78
2023-01-31T03:46:33.148Z,97349.66
2023-01-31T03:49:09.115Z,97359.91
2023-01-31T03:51:37.442Z,97366.94
2023-01-31T03:54:08.883Z,97382.84
2023-01-31T03:56:42.869Z,97387.50
2023-01-31T03:59:15.369Z,97389.56
2023-01-31T04:01:44.915Z,97392.91
2023-01-31T04:04:13.560Z,97403.38
2023-01-31T04:06:40.999Z,97401.28
2023-01-31T04:09:07.449Z,97395.81
2023-01-31T04:11:37.220Z,97397.56
2023-01-31T04:14:03.605Z,97397.75
2023-01-31T04:16:30.043Z,97404.91
2023-01-31T04:18:56.559Z,97410.72
2023-01-31T04:21:23.320Z,97415.19
2023-01-31T04:23:50.151Z,97413.13
2023-01-31T04:26:16.787Z,97413.75
2023-01-31T04:28:44.412Z,97416.94
2023-01-31T04:31:11.337Z,97412.50
2023-01-31T04:33:38.341Z,97416.84
2023-01-31T04:36:04.903Z,97420.06
2023-01-31T04:38:31.878Z,97421.09
2023-01-31T04:40:58.274Z,97419.56
2023-01-31T04:43:24.623Z,97420.00
2023-01-31T04:45:51.528Z,97414.69
2023-01-31T04:48:18.921Z,97413.03
2023-01-31T04:50:45.258Z,97404.44
2023-01-31T04:53:11.582Z,97395.50
2023-01-31T04:55:37.991Z,97411.16
2023-01-31T04:58:14.643Z,97403.28
2023-01-31T05:00:41.011Z,97410.13
2023-01-31T05:03:07.443Z,97400.91
2023-01-31T05:05:36.326Z,97415.19
2023-01-31T05:08:04.080Z,97414.69
2023-01-31T05:10:30.415Z,97417.06
2023-01-31T05:12:56.799Z,97405.06
2023-01-31T05:15:23.291Z,97411.91
2023-01-31T05:18:04.768Z,97406.91
2023-01-31T05:20:33.911Z,97395.53
2023-01-31T05:23:00.421Z,97394.59
2023-01-31T05:25:26.952Z,97393.44
2023-01-31T05:27:53.787Z,97399.13
2023-01-31T05:30:26.379Z,97404.72
2023-01-31T05:32:53.124Z,97401.34
2023-01-31T05:35:19.883Z,97404.63
2023-01-31T05:37:46.511Z,97409.41
2023-01-31T05:40:14.373Z,97416.47
2023-01-31T05:42:41.785Z,97421.00
2023-01-31T05:45:09.022Z,97418.59
2023-01-31T05:47:35.503Z,97417.47
2023-01-31T05:50:01.930Z,97410.44
2023-01-31T05:52:28.283Z,97420.50
2023-01-31T05:54:54.733Z,97423.91
2023-01-31T05:57:21.199Z,97428.47
2023-01-31T05:59:47.885Z,97430.66
2023-01-31T06:02:14.279Z,97434.69
2023-01-31T06:04:40.671Z,97434.91
2023-01-31T06:07:07.057Z,97443.41
2023-01-31T06:09:34.890Z,97443.81
2023-01-31T06:12:01.240Z,97449.00
2023-01-31T06:14:27.626Z,97440.72
2023-01-31T06:16:55.013Z,97444.63
2023-01-31T06:19:25.245Z,97454.09
2023-01-31T06:21:51.884Z,97453.03
2023-01-31T06:24:18.319Z,97445.38
2023-01-31T06:26:44.790Z,97450.75
2023-01-31T06:29:11.270Z,97452.19
2023-01-31T06:31:37.836Z,97446.00
2023-01-31T06:34:04.308Z,97456.25
2023-01-31T06:36:34.212Z,97454.09
2023-01-31T06:39:00.788Z,97458.94
2023-01-31T06:41:27.109Z,97452.94
2023-01-31T06:43:53.495Z,97462.06
2023-01-31T06:46:20.045Z,97460.38
2023-01-31T06:48:48.392Z,97462.97
2023-01-31T06:51:17.803Z,97460.19
2023-01-31T06:53:44.123Z,97468.16
2023-01-31T06:56:10.590Z,97456.66
2023-01-31T06:58:37.996Z,97470.03
2023-01-31T07:01:08.702Z,97473.97
2023-01-31T07:03:35.097Z,97468.81
2023-01-31T07:06:01.566Z,97477.63
2023-01-31T07:08:28.133Z,97484.41
2023-01-31T07:10:54.462Z,97480.06
2023-01-31T07:13:20.919Z,97481.44
2023-01-31T07:15:47.381Z,97478.66
2023-01-31T07:18:13.904Z,97483.50
2023-01-31T07:20:40.560Z,97485.69
2023-01-31T07:23:07.315Z,97476.97
2023-01-31T07:25:34.221Z,97476.56
2023-01-31T07:28:01.098Z,97476.34
2023-01-31T07:30:27.534Z,97482.59
2023-01-31T07:32:53.878Z,97472.41
2023-01-31T07:35:20.852Z,97477.09
2023-01-31T07:37:47.470Z,97477.41
2023-01-31T07:40:14.848Z,97473.25
2023-01-31T07:42:41.851Z,97482.69
2023-01-31T07:45:33.701Z,97485.28
2023-01-31T07:47:57.860Z,97493.16
2023-01-31T07:50:24.399Z,97500.63
2023-01-31T07:52:51.797Z,97493.88
2023-01-31T07:55:18.489Z,97496.69
2023-01-31T07:57:45.045Z,97497.41
2023-01-31T08:00:32.146Z,97506.22
2023-01-31T08:03:17.206Z,97507.22
2023-01-31T08:05:45.668Z,97508.28
2023-01-31T08:08:11.999Z,97504.13
2023-01-31T08:10:38.643Z,97508.41
2023-01-31T08:13:06.339Z,97510.78
2023-01-31T08:15:33.258Z,97507.16
2023-01-31T08:17:59.667Z,97514.31
2023-01-31T08:20:26.119Z,97521.38
2023-01-31T08:22:52.497Z,97522.19
2023-01-31T08:25:26.787Z,97526.75
2023-01-31T08:27:53.380Z,97520.13
2023-01-31T08:30:20.192Z,97526.97
2023-01-31T08:32:46.557Z,97521.38
2023-01-31T08:35:13.036Z,97526.13
2023-01-31T08:37:39.391Z,97529.78
2023-01-31T08:40:06.200Z,97525.09
2023-01-31T08:42:32.757Z,97526.75
2023-01-31T08:44:59.104Z,97514.63
2023-01-31T08:47:25.557Z,97514.72
2023-01-31T08:49:51.926Z,97515.25
2023-01-31T08:52:18.308Z,97516.50
2023-01-31T08:54:44.703Z,97516.34
2023-01-31T08:57:11.557Z,97510.59
2023-01-31T08:59:37.907Z,97505.63
2023-01-31T09:02:04.349Z,97517.31
2023-01-31T09:04:31.241Z,97513.28
2023-01-31T09:06:57.736Z,97515.75
2023-01-31T09:09:26.011Z,97513.38
2023-01-31T09:11:52.397Z,97520.31
2023-01-31T09:14:18.777Z,97517.19
2023-01-31T09:16:46.657Z,97514.94
2023-01-31T09:19:13.073Z,97518.84
2023-01-31T09:21:39.410Z,97512.84
2023-01-31T09:24:05.995Z,97504.63
2023-01-31T09:26:32.457Z,97512.56
2023-01-31T09:28:58.964Z,97501.97
2023-01-31T09:31:25.439Z,97511.34
2023-01-31T09:33:51.803Z,97510.50
2023-01-31T09:36:19.322Z,97509.19
2023-01-31T09:38:46.135Z,97504.84
2023-01-31T09:41:31.943Z,97498.16
2023-01-31T09:44:01.703Z,97498.47
2023-01-31T09:46:29.996Z,97509.16
2023-01-31T09:49:02.791Z,97509.66
2023-01-31T09:51:29.506Z,97518.75
2023-01-31T09:53:57.814Z,97512.31
2023-01-31T09:56:42.743Z,97511.38
2023-01-31T09:59:15.285Z,97526.50
2023-01-31T10:01:43.981Z,97518.22
2023-01-31T10:04:13.374Z,97517.63
2023-01-31T10:06:52.000Z,97518.31
2023-01-31T10:09:33.054Z,97516.19
2023-01-31T10:12:12.784Z,97517.41
2023-01-31T10:14:56.480Z,97523.00
2023-01-31T10:17:25.805Z,97509.78
2023-01-31T10:20:15.309Z,97503.00
2023-01-31T10:23:04.398Z,97518.53
2023-01-31T10:25:36.991Z,97512.22
2023-01-31T10:28:06.509Z,97510.44
2023-01-31T10:30:45.679Z,97505.81
2023-01-31T10:33:30.458Z,97498.69
2023-01-31T10:35:58.655Z,97506.09
2023-01-31T10:38:30.152Z,97500.91
2023-01-31T10:40:59.660Z,97482.28
2023-01-31T10:43:28.988Z,97474.31
2023-01-31T10:45:59.255Z,97464.06
2023-01-31T10:48:27.938Z,97455.78
2023-01-31T10:51:05.326Z,97452.75
2023-01-31T10:53:32.137Z,97454.44
2023-01-31T10:56:03.541Z,97443.41
2023-01-31T10:58:30.266Z,97436.84
2023-01-31T11:00:56.745Z,97423.91
2023-01-31T11:03:24.403Z,97416.22
2023-01-31T11:05:51.663Z,97410.44
2023-01-31T11:08:22.092Z,97402.16
2023-01-31T11:10:52.958Z,97408.97
2023-01-31T11:13:19.583Z,97393.19
2023-01-31T11:15:48.288Z,97397.75
2023-01-31T11:18:17.185Z,97398.63
2023-01-31T11:20:47.331Z,97397.44
2023-01-31T11:23:15.260Z,97402.72
2023-01-31T11:25:46.938Z,97386.44
2023-01-31T11:28:19.867Z,97373.59
2023-01-31T11:30:48.180Z,97377.06
2023-01-31T11:33:33.391Z,97378.78
2023-01-31T11:35:59.727Z,97368.72
2023-01-31T11:38:26.824Z,97377.34
2023-01-31T11:40:53.233Z,97365.84
2023-01-31T11:43:19.705Z,97369.56
2023-01-31T11:45:47.182Z,97378.38
2023-01-31T11:48:13.819Z,97365.16
2023-01-31T11:50:46.077Z,97369.06
2023-01-31T11:53:26.275Z,97365.88
2023-01-31T11:55:54.457Z,97364.91
2023-01-31T11:58:22.229Z,97369.19
2023-01-31T12:00:57.105Z,97357.13
2023-01-31T12:03:24.677Z,97344.81
2023-01-31T12:05:52.270Z,97341.53
2023-01-31T12:08:30.114Z,97329.50
2023-01-31T12:10:57.244Z,97313.66
2023-01-31T12:13:23.785Z,97301.16
2023-01-31T12:15:55.512Z,97280.34
2023-01-31T12:18:28.875Z,97282.00
2023-01-31T12:21:03.201Z,97300.91
2023-01-31T12:23:55.234Z,97290.25
2023-01-31T12:26:33.575Z,97273.94
2023-01-31T12:29:19.521Z,97284.19
2023-01-31T12:31:54.055Z,97287.44
2023-01-31T12:34:20.640Z,97293.56
2023-01-31T12:36:53.097Z,97292.75
2023-01-31T12:39:28.217Z,97282.00
2023-01-31T12:42:11.963Z,97285.09
2023-01-31T12:44:43.775Z,97284.16
2023-01-31T12:47:29.261Z,97290.75
2023-01-31T12:49:58.748Z,97270.41
2023-01-31T12:52:34.557Z,97283.88
2023-01-31T12:55:00.880Z,97288.88
2023-01-31T12:57:44.121Z,97296.09
2023-01-31T13:00:16.588Z,97295.25
2023-01-31T13:02:42.951Z,97313.44
2023-01-31T13:05:21.663Z,97294.28
2023-01-31T13:07:52.035Z,97307.28
2023-01-31T13:10:27.456Z,97301.38
2023-01-31T13:12:55.208Z,97315.06
2023-01-31T13:15:21.927Z,97324.50
2023-01-31T13:17:52.900Z,97321.22
2023-01-31T13:20:26.197Z,97303.38
2023-01-31T13:22:55.361Z,97300.25
2023-01-31T13:25:23.700Z,97302.50
2023-01-31T13:27:58.520Z,97308.16
2023-01-31T13:30:43.751Z,97298.00
2023-01-31T13:33:33.449Z,97291.28
2023-01-31T13:36:15.768Z,97287.38
2023-01-31T13:38:43.361Z,97298.59
2023-01-31T13:41:30.166Z,97291.59
2023-01-31T13:43:57.774Z,97284.28
2023-01-31T13:46:47.215Z,97266.00
2023-01-31T13:49:24.904Z,97283.41
2023-01-31T13:51:58.842Z,97285.34
2023-01-31T13:54:25.181Z,97275.44
2023-01-31T13:56:55.469Z,97272.84
2023-01-31T13:59:24.315Z,97281.69
2023-01-31T14:01:51.448Z,97279.22
2023-01-31T14:04:18.389Z,97264.16
2023-01-31T14:06:56.700Z,97244.66
2023-01-31T14:09:24.136Z,97244.88
2023-01-31T14:11:50.699Z,97235.22
2023-01-31T14:14:19.900Z,97217.69
2023-01-31T14:16:46.787Z,97231.66
2023-01-31T14:19:19.095Z,97217.16
2023-01-31T14:21:54.491Z,97214.16
2023-01-31T14:24:39.729Z,97199.56
2023-01-31T14:27:15.055Z,97199.69
2023-01-31T14:29:43.184Z,97209.56
2023-01-31T14:32:32.759Z,97211.88
2023-01-31T14:35:03.328Z,97222.09
2023-01-31T14:37:35.541Z,97231.59
2023-01-31T14:40:04.863Z,97216.81
2023-01-31T14:42:31.147Z,97199.47
2023-01-31T14:45:06.790Z,97206.28
2023-01-31T14:47:43.679Z,97184.44
2023-01-31T14:50:28.667Z,97174.97
2023-01-31T14:53:03.058Z,97180.91
2023-01-31T14:55:48.139Z,97187.03
2023-01-31T14:58:20.651Z,97181.22
2023-01-31T15:00:49.238Z,97185.16
2023-01-31T15:03:18.881Z,97183.44
2023-01-31T15:05:48.160Z,97183.94
2023-01-31T15:08:19.673Z,97168.63
2023-01-31T15:10:55.358Z,97141.44
2023-01-31T15:13:48.225Z,97150.09
2023-01-31T15:16:19.225Z,97151.84
2023-01-31T15:18:47.479Z,97151.09
2023-01-31T15:21:18.981Z,97147.88
2023-01-31T15:23:45.721Z,97153.06
2023-01-31T15:26:16.105Z,97165.72
2023-01-31T15:28:43.719Z,97170.56
2023-01-31T15:31:17.104Z,97162.28
2023-01-31T15:33:50.466Z,97171.34
2023-01-31T15:36:33.908Z,97167.41
2023-01-31T15:39:06.289Z,97169.00
2023-01-31T15:41:39.926Z,97172.06
2023-01-31T15:44:11.453Z,97178.31
2023-01-31T15:46:37.789Z,97173.81
2023-01-31T15:49:32.752Z,97183.97
2023-01-31T15:52:10.733Z,97188.69
2023-01-31T15:54:37.424Z,97181.63
2023-01-31T15:57:04.445Z,97196.94
2023-01-31T15:59:32.405Z,97188.91
2023-01-31T16:02:00.894Z,97191.50
2023-01-31T16:04:27.772Z,97192.25
2023-01-31T16:06:54.378Z,97197.38
2023-01-31T16:09:29.777Z,97197.44
2023-01-31T16:12:00.737Z,97194.09
2023-01-31T16:14:27.629Z,97197.38
2023-01-31T16:16:56.484Z,97194.47
2023-01-31T16:19:25.459Z,97174.03
2023-01-31T16:21:52.507Z,97178.53
2023-01-31T16:24:19.951Z,97178.47
2023-01-31T16:27:00.058Z,97182.59
2023-01-31T16:29:44.064Z,97185.88
2023-01-31T16:32:20.176Z,97184.81
2023-01-31T16:34:59.723Z,97177.66
2023-01-31T16:37:29.073Z,97192.59
2023-01-31T16:39:59.345Z,97190.47
2023-01-31T16:42:29.448Z,97194.53
2023-01-31T16:44:55.845Z,97205.91
2023-01-31T16:47:34.375Z,97204.34
2023-01-31T16:50:24.741Z,97197.06
2023-01-31T16:53:16.677Z,97206.59
2023-01-31T16:55:44.433Z,97197.56
2023-01-31T16:58:13.805Z,97199.56
2023-01-31T17:00:42.095Z,97199.78
2023-01-31T17:03:18.957Z,97191.78
2023-01-31T17:05:47.535Z,97186.13
2023-01-31T17:08:18.190Z,97185.53
2023-01-31T17:10:45.383Z,97178.38
2023-01-31T17:13:16.911Z,97174.06
2023-01-31T17:15:43.271Z,97172.59
2023-01-31T17:18:10.562Z,97170.16
2023-01-31T17:20:37.247Z,97169.72
2023-01-31T17:23:03.823Z,97164.75
2023-01-31T17:25:34.626Z,97166.44
2023-01-31T17:28:01.076Z,97150.25
2023-01-31T17:30:30.394Z,97168.78
2023-01-31T17:32:58.705Z,97170.22
2023-01-31T17:35:35.049Z,97174.69
2023-01-31T17:38:01.491Z,97175.47
2023-01-31T17:40:28.040Z,97167.09
2023-01-31T17:42:57.998Z,97164.31
2023-01-31T17:45:24.827Z,97155.81
2023-01-31T17:47:51.277Z,97161.16
2023-01-31T17:50:19.056Z,97171.19
2023-01-31T17:52:45.381Z,97171.47
2023-01-31T17:55:12.259Z,97161.66
2023-01-31T17:57:40.038Z,97164.72
2023-01-31T18:00:07.772Z,97170.44
2023-01-31T18:02:34.287Z,97169.13
2023-01-31T18:05:00.978Z,97163.94
2023-01-31T18:07:27.365Z,97176.50
2023-01-31T18:09:54.918Z,97177.22
2023-01-31T18:12:21.277Z,97179.59
2023-01-31T18:14:47.743Z,97179.78
2023-01-31T18:17:15.187Z,97180.53
2023-01-31T18:19:41.543Z,97168.00
2023-01-31T18:22:07.912Z,97170.78
2023-01-31T18:24:34.234Z,97169.34
2023-01-31T18:27:01.094Z,97166.47
2023-01-31T18:29:27.596Z,97163.69
2023-01-31T18:32:02.265Z,97166.06
2023-01-31T18:34:29.482Z,97150.53
2023-01-31T18:36:55.795Z,97162.22
2023-01-31T18:39:22.219Z,97154.63
2023-01-31T18:41:49.690Z,97141.03
2023-01-31T18:44:16.020Z,97149.88
2023-01-31T18:46:42.471Z,97152.44
2023-01-31T18:49:08.930Z,97146.88
2023-01-31T18:51:35.467Z,97159.75
2023-01-31T18:54:01.779Z,97162.28
2023-01-31T18:56:28.562Z,97163.97
2023-01-31T18:58:54.903Z,97163.41
2023-01-31T19:01:22.764Z,97155.91
2023-01-31T19:03:50.435Z,97160.13
2023-01-31T19:06:18.378Z,97156.66
2023-01-31T19:08:48.776Z,97163.97
2023-01-31T19:11:16.097Z,97162.28
2023-01-31T19:13:42.928Z,97148.16
2023-01-31T19:16:13.370Z,97154.53
2023-01-31T19:18:41.223Z,97135.72
2023-01-31T19:21:14.446Z,97146.44
2023-01-31T19:23:40.959Z,97164.03
2023-01-31T19:26:07.292Z,97156.66
2023-01-31T19:28:37.163Z,97154.94
2023-01-31T19:31:05.334Z,97149.84
2023-01-31T19:33:31.798Z,97151.25
2023-01-31T19:35:58.168Z,97150.34
2023-01-31T19:38:24.634Z,97150.63
2023-01-31T19:40:52.022Z,97159.75
2023-01-31T19:43:18.685Z,97161.19
2023-01-31T19:45:45.143Z,97158.97
2023-01-31T19:48:11.572Z,97140.34
2023-01-31T19:50:37.973Z,97136.72
2023-01-31T19:53:04.393Z,97139.56
2023-01-31T19:55:32.406Z,97152.75
2023-01-31T19:57:58.748Z,97143.84
2023-01-31T20:00:27.309Z,97158.94
2023-01-31T20:02:53.724Z,97159.31
2023-01-31T20:05:21.561Z,97154.44
2023-01-31T20:07:48.465Z,97148.94
2023-01-31T20:10:19.600Z,97149.81
2023-01-31T20:12:46.210Z,97145.97
2023-01-31T20:15:12.540Z,97145.97
2023-01-31T20:17:40.951Z,97145.72
2023-01-31T20:20:08.635Z,97157.19
2023-01-31T20:22:37.324Z,97149.56
2023-01-31T20:25:04.533Z,97132.19
2023-01-31T20:27:35.937Z,97137.16
2023-01-31T20:30:05.652Z,97133.25
2023-01-31T20:32:32.024Z,97140.25
2023-01-31T20:35:00.134Z,97133.28
2023-01-31T20:37:27.082Z,97140.81
2023-01-31T20:39:54.792Z,97134.44
2023-01-31T20:42:21.181Z,97135.84
2023-01-31T20:44:47.495Z,97124.56
2023-01-31T20:47:15.820Z,97120.66
2023-01-31T20:49:42.194Z,97127.59
2023-01-31T20:52:08.550Z,97106.97
2023-01-31T20:54:35.204Z,97092.81
2023-01-31T20:57:01.569Z,97100.84
2023-01-31T20:59:29.946Z,97135.63
2023-01-31T21:01:56.315Z,97135.06
2023-01-31T21:04:22.851Z,97121.03
2023-01-31T21:06:49.235Z,97129.25
2023-01-31T21:09:15.619Z,97120.78
2023-01-31T21:11:42.041Z,97130.19
2023-01-31T21:14:08.488Z,97127.28
2023-01-31T21:16:35.648Z,97136.22
2023-01-31T21:19:01.976Z,97137.75
2023-01-31T21:21:29.359Z,97135.88
2023-01-31T21:23:57.378Z,97131.84
2023-01-31T21:26:26.475Z,97134.44
2023-01-31T21:28:54.138Z,97127.59
2023-01-31T21:31:20.948Z,97129.84
2023-01-31T21:33:50.084Z,97121.47
2023-01-31T21:36:17.763Z,97130.44
2023-01-31T21:38:44.294Z,97129.03
2023-01-31T21:41:29.438Z,97145.19
2023-01-31T21:43:56.369Z,97129.72
2023-01-31T21:46:24.666Z,97131.38
2023-01-31T21:48:52.076Z,97124.53
2023-01-31T21:51:19.980Z,97126.88
2023-01-31T21:53:46.459Z,97134.56
2023-01-31T21:56:17.294Z,97131.84
2023-01-31T21:58:44.538Z,97112.03
2023-01-31T22:01:19.418Z,97131.50
2023-01-31T22:03:48.211Z,97126.44
2023-01-31T22:06:15.885Z,97138.13
2023-01-31T22:08:42.484Z,97138.94
2023-01-31T22:11:10.038Z,97142.34
2023-01-31T22:13:39.128Z,97130.69
2023-01-31T22:16:07.363Z,97128.31
2023-01-31T22:18:34.063Z,97112.53
2023-01-31T22:21:07.714Z,97119.59
2023-01-31T22:23:35.710Z,97121.94
2023-01-31T22:26:10.454Z,97123.84
2023-01-31T22:28:37.118Z,97129.84
2023-01-31T22:31:07.360Z,97125.84
2023-01-31T22:33:35.092Z,97130.69
2023-01-31T22:36:03.144Z,97121.47
2023-01-31T22:38:29.469Z,97123.97
2023-01-31T22:40:56.993Z,97124.53
2023-01-31T22:43:23.579Z,97115.59
2023-01-31T22:45:50.971Z,97118.38
2023-01-31T22:48:17.946Z,97112.72
2023-01-31T22:50:44.314Z,97113.09
2023-01-31T22:53:11.245Z,97105.19
2023-01-31T22:55:38.773Z,97104.72
2023-01-31T22:58:06.595Z,97110.63
2023-01-31T23:00:33.289Z,97094.69
2023-01-31T23:02:59.647Z,97094.09
2023-01-31T23:05:26.052Z,97099.66
2023-01-31T23:07:54.901Z,97092.66
2023-01-31T23:10:21.974Z,97109.88
2023-01-31T23:12:48.601Z,97099.47
2023-01-31T23:15:15.126Z,97102.81
2023-01-31T23:17:41.752Z,97101.41
2023-01-31T23:20:12.910Z,97109.28
2023-01-31T23:22:39.601Z,97090.44
2023-01-31T23:25:07.496Z,97086.03
2023-01-31T23:27:34.000Z,97084.06
2023-01-31T23:30:01.552Z,97081.69
2023-01-31T23:32:27.899Z,97080.97
2023-01-31T23:34:54.358Z,97083.91
2023-01-31T23:37:22.317Z,97086.75
2023-01-31T23:39:49.144Z,97088.91
2023-01-31T23:42:16.315Z,97082.75
2023-01-31T23:44:42.685Z,97088.63
2023-01-31T23:47:09.199Z,97077.78
2023-01-31T23:49:35.618Z,97077.56
2023-01-31T23:52:02.025Z,97078.13
2023-01-31T23:54:29.628Z,97069.50
2023-01-31T23:56:55.945Z,97063.28
2023-01-31T23:59:23.351Z,97074.97
